avis per tempestes more information blitzortung!


avis per Pluja more information rain snow radar


Visita la nostra xarxa de llocs de meteo:

Template documentation
and downloads

And another site



Thunderstorms From: 20-07-2018 17:00 Until: 21-07-2018 01:59 warning for: Thunderstorms Level: Yellow info button
Rain From: 20-07-2018 17:00 Until: 21-07-2018 01:59 warning for: Rain Level: Yellow info button

Pagina Historial Weather Underground text

Diari Resum Novembre 6, 2017 Unitats:  Tant    Imperial   Mètric
« Previous Dia
SegĂźent Dia »
Diari Setmana Mensual Anual Personalitzada
  Maxima: Minima: Media:
Temperatura: TemperatureC °F /  -17.8 °C 3.6 °F /  -15.8 °C 10.9 °F /  -11.7 °C
Punt de rosada: DewpointC °F /  -17.8 °C -10.8 °F /  -23.8 °C -5.6 °F /  -20.9 °C
Humitat: Humidity % 22 % 32 %
Wind Speed: WindSpeedKMH mph /  0 km/h - 6.8 mph /  10.9 km/h
RĂ fegues de vent: WindSpeedGustKMH mph /  0 km/h - -
Vent:- - WSW
Pression baro: PressurehPa in /  0 hPa 1013.8 in /  34327.3 hPa -
Precipitacions: 0.0 in /  0 mm    
Historical Graphs
 
 
Dades de taula per Novembre 6, 2017
Temps Temperatura Punt de rosada Pression baro Vent Wind Speed RĂ fegues de vent Humitat Rainfall Rate (Hourly)
TemperatureC °F /  -17.8 °C DewpointC °F /  -17.8 °C PressurehPa in /  0 hPa Calm     Humidity % HourlyPrecipMM in /  0 mm
00:00 7.5 °F /  -13.6 °C 0.7 °F /  -17.4 °C 1016.8 in /  34428.8 hPa West 4.8 mph /  7.7 km/h 8.0 mph /  12.9 km/h 62 % 0.0 in /  0 mm
00:03 9.8 °F /  -12.3 °C 1.9 °F /  -16.7 °C 1016.8 in /  34428.8 hPa WSW 9.3 mph /  15 km/h 9.3 mph /  15 km/h 58 % 0.0 in /  0 mm
00:10 7.6 °F /  -13.6 °C 0.6 °F /  -17.4 °C 1016.8 in /  34428.8 hPa WSW 4.8 mph /  7.7 km/h 6.4 mph /  10.3 km/h 61 % 0.0 in /  0 mm
00:20 7.5 °F /  -13.6 °C 0.4 °F /  -17.6 °C 1016.8 in /  34428.8 hPa WSW 4.8 mph /  7.7 km/h 6.4 mph /  10.3 km/h 61 % 0.0 in /  0 mm
00:30 7.4 °F /  -13.7 °C 0.1 °F /  -17.7 °C 1016.8 in /  34428.8 hPa West 4.8 mph /  7.7 km/h 9.7 mph /  15.6 km/h 60 % 0.0 in /  0 mm
00:40 7.4 °F /  -13.7 °C 0.1 °F /  -17.7 °C 1017.8 in /  34462.7 hPa West 4.8 mph /  7.7 km/h 4.8 mph /  7.7 km/h 60 % 0.0 in /  0 mm
00:50 7.2 °F /  -13.8 °C -0.3 °F /  -17.9 °C 1017.8 in /  34462.7 hPa WSW 4.8 mph /  7.7 km/h 6.4 mph /  10.3 km/h 59 % 0.0 in /  0 mm
01:00 7.0 °F /  -13.9 °C -0.2 °F /  -17.9 °C 1016.8 in /  34428.8 hPa WSW 8.0 mph /  12.9 km/h 8.0 mph /  12.9 km/h 60 % 0.0 in /  0 mm
01:10 6.9 °F /  -13.9 °C -0.3 °F /  -17.9 °C 1017.8 in /  34462.7 hPa WSW 4.8 mph /  7.7 km/h 9.7 mph /  15.6 km/h 60 % 0.0 in /  0 mm
01:20 7.1 °F /  -13.8 °C -0.4 °F /  -18 °C 1017.8 in /  34462.7 hPa West 3.2 mph /  5.1 km/h 6.4 mph /  10.3 km/h 59 % 0.0 in /  0 mm
01:30 7.2 °F /  -13.8 °C -0.5 °F /  -18.1 °C 1017.8 in /  34462.7 hPa West 4.8 mph /  7.7 km/h 8.0 mph /  12.9 km/h 58 % 0.0 in /  0 mm
01:40 7.3 °F /  -13.7 °C -0.7 °F /  -18.2 °C 1017.8 in /  34462.7 hPa WSW 4.8 mph /  7.7 km/h 8.0 mph /  12.9 km/h 57 % 0.0 in /  0 mm
01:50 7.4 °F /  -13.7 °C -0.6 °F /  -18.1 °C 1017.8 in /  34462.7 hPa WSW 1.6 mph /  2.6 km/h 4.8 mph /  7.7 km/h 57 % 0.0 in /  0 mm
02:00 7.6 °F /  -13.6 °C -0.6 °F /  -18.1 °C 1017.8 in /  34462.7 hPa WSW 3.2 mph /  5.1 km/h 6.4 mph /  10.3 km/h 56 % 0.0 in /  0 mm
02:10 7.8 °F /  -13.4 °C -0.7 °F /  -18.2 °C 1017.8 in /  34462.7 hPa WSW 1.6 mph /  2.6 km/h 4.8 mph /  7.7 km/h 55 % 0.0 in /  0 mm
02:20 8.1 °F /  -13.3 °C -0.4 °F /  -18 °C 1017.8 in /  34462.7 hPa WSW 4.8 mph /  7.7 km/h 6.4 mph /  10.3 km/h 55 % 0.0 in /  0 mm
02:30 8.5 °F /  -13.1 °C -0.3 °F /  -17.9 °C 1017.8 in /  34462.7 hPa WSW 9.7 mph /  15.6 km/h 9.7 mph /  15.6 km/h 54 % 0.0 in /  0 mm
02:45 9.0 °F /  -12.8 °C -0.3 °F /  -17.9 °C 1017.8 in /  34462.7 hPa WSW 3.2 mph /  5.1 km/h 8.0 mph /  12.9 km/h 52 % 0.0 in /  0 mm
02:55 9.4 °F /  -12.6 °C 0.0 °F /  -17.8 °C 1017.8 in /  34462.7 hPa SW 3.2 mph /  5.1 km/h 4.8 mph /  7.7 km/h 52 % 0.0 in /  0 mm
03:05 9.9 °F /  -12.3 °C 0.5 °F /  -17.5 °C 1017.8 in /  34462.7 hPa SW 4.8 mph /  7.7 km/h 6.4 mph /  10.3 km/h 52 % 0.0 in /  0 mm
03:15 10.2 °F /  -12.1 °C 0.8 °F /  -17.3 °C 1017.8 in /  34462.7 hPa SW 3.2 mph /  5.1 km/h 4.8 mph /  7.7 km/h 52 % 0.0 in /  0 mm
03:25 10.6 °F /  -11.9 °C 0.9 °F /  -17.3 °C 1017.8 in /  34462.7 hPa SW 4.8 mph /  7.7 km/h 8.0 mph /  12.9 km/h 51 % 0.0 in /  0 mm
03:35 10.8 °F /  -11.8 °C 0.8 °F /  -17.3 °C 1017.8 in /  34462.7 hPa SW 9.7 mph /  15.6 km/h 11.3 mph /  18.2 km/h 50 % 0.0 in /  0 mm
03:45 11.1 °F /  -11.6 °C 0.8 °F /  -17.3 °C 1017.8 in /  34462.7 hPa WSW 11.3 mph /  18.2 km/h 11.3 mph /  18.2 km/h 49 % 0.0 in /  0 mm
03:55 11.3 °F /  -11.5 °C 0.7 °F /  -17.4 °C 1017.8 in /  34462.7 hPa WSW 3.2 mph /  5.1 km/h 12.9 mph /  20.8 km/h 48 % 0.0 in /  0 mm
04:05 11.6 °F /  -11.3 °C 0.9 °F /  -17.3 °C 1017.8 in /  34462.7 hPa WSW 4.8 mph /  7.7 km/h 8.0 mph /  12.9 km/h 48 % 0.0 in /  0 mm
04:15 12.1 °F /  -11.1 °C 1.1 °F /  -17.2 °C 1017.8 in /  34462.7 hPa WSW 4.8 mph /  7.7 km/h 6.4 mph /  10.3 km/h 47 % 0.0 in /  0 mm
04:25 12.2 °F /  -11 °C 1.2 °F /  -17.1 °C 1017.8 in /  34462.7 hPa SW 8.0 mph /  12.9 km/h 9.7 mph /  15.6 km/h 47 % 0.0 in /  0 mm
04:35 12.9 °F /  -10.6 °C 1.6 °F /  -16.9 °C 1017.8 in /  34462.7 hPa WSW 3.2 mph /  5.1 km/h 9.7 mph /  15.6 km/h 46 % 0.0 in /  0 mm
10:38 13.0 °F /  -10.6 °C 1.3 °F /  -17.1 °C 1017.8 in /  34462.7 hPa NW 3.7 mph /  6 km/h 3.9 mph /  6.3 km/h 45 % 0.0 in /  0 mm
10:39 13.0 °F /  -10.6 °C 1.3 °F /  -17.1 °C 1017.8 in /  34462.7 hPa West 9.3 mph /  15 km/h 9.3 mph /  15 km/h 45 % 0.0 in /  0 mm
10:44 13.1 °F /  -10.5 °C 1.7 °F /  -16.8 °C 1017.8 in /  34462.7 hPa West 9.3 mph /  15 km/h 9.3 mph /  15 km/h 46 % 0.0 in /  0 mm
10:49 13.2 °F /  -10.4 °C 1.8 °F /  -16.8 °C 1017.8 in /  34462.7 hPa SW 9.3 mph /  15 km/h 9.3 mph /  15 km/h 46 % 0.0 in /  0 mm
10:54 13.3 °F /  -10.4 °C 1.6 °F /  -16.9 °C 1017.8 in /  34462.7 hPa WNW 7.4 mph /  11.9 km/h 7.4 mph /  11.9 km/h 45 % 0.0 in /  0 mm
10:59 13.2 °F /  -10.4 °C 1.2 °F /  -17.1 °C 1017.8 in /  34462.7 hPa NNW 9.0 mph /  14.5 km/h 9.0 mph /  14.5 km/h 44 % 0.0 in /  0 mm
11:05 13.5 °F /  -10.3 °C 1.4 °F /  -17 °C 1017.8 in /  34462.7 hPa SW 6.4 mph /  10.3 km/h 6.4 mph /  10.3 km/h 44 % 0.0 in /  0 mm
11:10 13.5 °F /  -10.3 °C 1.8 °F /  -16.8 °C 1017.8 in /  34462.7 hPa West 7.4 mph /  11.9 km/h 7.4 mph /  11.9 km/h 45 % 0.0 in /  0 mm
11:15 13.5 °F /  -10.3 °C 1.4 °F /  -17 °C 1017.8 in /  34462.7 hPa West 9.3 mph /  15 km/h 9.5 mph /  15.3 km/h 44 % 0.0 in /  0 mm
11:20 13.7 °F /  -10.2 °C 1.7 °F /  -16.8 °C 1017.8 in /  34462.7 hPa West 7.4 mph /  11.9 km/h 7.4 mph /  11.9 km/h 44 % 0.0 in /  0 mm
11:25 13.9 °F /  -10.1 °C 1.5 °F /  -16.9 °C 1016.8 in /  34428.8 hPa SW 5.6 mph /  9 km/h 5.6 mph /  9 km/h 43 % 0.0 in /  0 mm
11:30 13.9 °F /  -10.1 °C 1.8 °F /  -16.8 °C 1016.8 in /  34428.8 hPa SW 9.5 mph /  15.3 km/h 9.5 mph /  15.3 km/h 44 % 0.0 in /  0 mm
11:35 14.1 °F /  -9.9 °C 1.7 °F /  -16.8 °C 1016.8 in /  34428.8 hPa WNW 9.3 mph /  15 km/h 9.3 mph /  15 km/h 43 % 0.0 in /  0 mm
11:40 14.2 °F /  -9.9 °C 1.8 °F /  -16.8 °C 1017.8 in /  34462.7 hPa WSW 7.9 mph /  12.7 km/h 7.9 mph /  12.7 km/h 43 % 0.0 in /  0 mm
11:45 14.2 °F /  -9.9 °C 1.4 °F /  -17 °C 1017.8 in /  34462.7 hPa WSW 14.8 mph /  23.8 km/h 14.8 mph /  23.8 km/h 42 % 0.0 in /  0 mm
11:46 14.3 °F /  -9.8 °C 1.6 °F /  -16.9 °C 1017.8 in /  34462.7 hPa West 9.3 mph /  15 km/h 9.3 mph /  15 km/h 42 % 0.0 in /  0 mm
11:51 14.5 °F /  -9.7 °C 1.7 °F /  -16.8 °C 1016.8 in /  34428.8 hPa NW 11.1 mph /  17.9 km/h 11.1 mph /  17.9 km/h 42 % 0.0 in /  0 mm
11:56 14.3 °F /  -9.8 °C 1.6 °F /  -16.9 °C 1016.8 in /  34428.8 hPa West 7.9 mph /  12.7 km/h 7.9 mph /  12.7 km/h 42 % 0.0 in /  0 mm
12:01 14.8 °F /  -9.6 °C 1.7 °F /  -16.8 °C 1016.8 in /  34428.8 hPa WSW 5.6 mph /  9 km/h 5.6 mph /  9 km/h 41 % 0.0 in /  0 mm
12:06 15.0 °F /  -9.4 °C 1.5 °F /  -16.9 °C 1015.8 in /  34395 hPa West 9.3 mph /  15 km/h 9.3 mph /  15 km/h 40 % 0.0 in /  0 mm
12:11 15.0 °F /  -9.4 °C 1.5 °F /  -16.9 °C 1015.8 in /  34395 hPa WNW 13.0 mph /  20.9 km/h 13.0 mph /  20.9 km/h 40 % 0.0 in /  0 mm
12:16 15.2 °F /  -9.3 °C 0.9 °F /  -17.3 °C 1015.8 in /  34395 hPa ENE 7.4 mph /  11.9 km/h 7.4 mph /  11.9 km/h 38 % 0.0 in /  0 mm
12:21 15.2 °F /  -9.3 °C 0.6 °F /  -17.4 °C 1015.8 in /  34395 hPa West 9.3 mph /  15 km/h 9.3 mph /  15 km/h 37 % 0.0 in /  0 mm
12:26 15.5 °F /  -9.2 °C 0.5 °F /  -17.5 °C 1015.8 in /  34395 hPa WNW 7.4 mph /  11.9 km/h 7.4 mph /  11.9 km/h 36 % 0.0 in /  0 mm
12:31 15.8 °F /  -9 °C 0.7 °F /  -17.4 °C 1015.8 in /  34395 hPa WNW 9.5 mph /  15.3 km/h 9.5 mph /  15.3 km/h 36 % 0.0 in /  0 mm
12:36 15.5 °F /  -9.2 °C 0.5 °F /  -17.5 °C 1015.8 in /  34395 hPa WNW 9.3 mph /  15 km/h 9.3 mph /  15 km/h 36 % 0.0 in /  0 mm
12:41 15.4 °F /  -9.2 °C -0.4 °F /  -18 °C 1015.8 in /  34395 hPa SE 5.8 mph /  9.3 km/h 5.8 mph /  9.3 km/h 34 % 0.0 in /  0 mm
12:46 15.4 °F /  -9.2 °C -0.4 °F /  -18 °C 1015.8 in /  34395 hPa NNW 9.3 mph /  15 km/h 9.3 mph /  15 km/h 34 % 0.0 in /  0 mm
12:51 15.5 °F /  -9.2 °C -0.3 °F /  -17.9 °C 1015.8 in /  34395 hPa SW 13.0 mph /  20.9 km/h 13.0 mph /  20.9 km/h 34 % 0.0 in /  0 mm
12:56 15.7 °F /  -9.1 °C -0.1 °F /  -17.8 °C 1015.8 in /  34395 hPa NW 7.4 mph /  11.9 km/h 7.4 mph /  11.9 km/h 34 % 0.0 in /  0 mm
13:01 15.5 °F /  -9.2 °C -0.7 °F /  -18.2 °C 1015.8 in /  34395 hPa NW 9.3 mph /  15 km/h 9.3 mph /  15 km/h 33 % 0.0 in /  0 mm
13:06 15.7 °F /  -9.1 °C -0.6 °F /  -18.1 °C 1014.8 in /  34361.1 hPa SSW 9.3 mph /  15 km/h 9.3 mph /  15 km/h 33 % 0.0 in /  0 mm
13:11 15.8 °F /  -9 °C -0.4 °F /  -18 °C 1014.8 in /  34361.1 hPa West 14.8 mph /  23.8 km/h 14.8 mph /  23.8 km/h 33 % 0.0 in /  0 mm
13:16 15.6 °F /  -9.1 °C -1.1 °F /  -18.4 °C 1014.8 in /  34361.1 hPa NNE 13.0 mph /  20.9 km/h 13.0 mph /  20.9 km/h 32 % 0.0 in /  0 mm
13:21 15.6 °F /  -9.1 °C -1.5 °F /  -18.6 °C 1015.8 in /  34395 hPa NW 9.3 mph /  15 km/h 9.3 mph /  15 km/h 31 % 0.0 in /  0 mm
13:26 15.6 °F /  -9.1 °C -1.5 °F /  -18.6 °C 1015.8 in /  34395 hPa NW 14.8 mph /  23.8 km/h 14.8 mph /  23.8 km/h 31 % 0.0 in /  0 mm
13:31 15.6 °F /  -9.1 °C -1.1 °F /  -18.4 °C 1015.8 in /  34395 hPa NW 9.3 mph /  15 km/h 9.3 mph /  15 km/h 32 % 0.0 in /  0 mm
13:36 15.4 °F /  -9.2 °C -2.1 °F /  -18.9 °C 1015.8 in /  34395 hPa SW 20.4 mph /  32.8 km/h 20.4 mph /  32.8 km/h 30 % 0.0 in /  0 mm
13:41 15.4 °F /  -9.2 °C -1.7 °F /  -18.7 °C 1015.8 in /  34395 hPa WNW 5.6 mph /  9 km/h 5.6 mph /  9 km/h 31 % 0.0 in /  0 mm
13:46 15.4 °F /  -9.2 °C -2.1 °F /  -18.9 °C 1015.8 in /  34395 hPa NW 14.8 mph /  23.8 km/h 14.8 mph /  23.8 km/h 30 % 0.0 in /  0 mm
13:51 15.4 °F /  -9.2 °C -1.7 °F /  -18.7 °C 1015.8 in /  34395 hPa NW 9.5 mph /  15.3 km/h 9.5 mph /  15.3 km/h 31 % 0.0 in /  0 mm
13:56 15.4 °F /  -9.2 °C -2.1 °F /  -18.9 °C 1015.8 in /  34395 hPa WNW 13.0 mph /  20.9 km/h 13.0 mph /  20.9 km/h 30 % 0.0 in /  0 mm
14:01 15.5 °F /  -9.2 °C -2.0 °F /  -18.9 °C 1015.8 in /  34395 hPa WSW 7.4 mph /  11.9 km/h 7.4 mph /  11.9 km/h 30 % 0.0 in /  0 mm
14:06 15.6 °F /  -9.1 °C -1.5 °F /  -18.6 °C 1015.8 in /  34395 hPa NW 7.9 mph /  12.7 km/h 7.9 mph /  12.7 km/h 31 % 0.0 in /  0 mm
14:11 15.5 °F /  -9.2 °C -2.0 °F /  -18.9 °C 1015.8 in /  34395 hPa NNW 9.3 mph /  15 km/h 9.3 mph /  15 km/h 30 % 0.0 in /  0 mm
14:16 15.6 °F /  -9.1 °C -1.9 °F /  -18.8 °C 1015.8 in /  34395 hPa NW 11.4 mph /  18.3 km/h 11.4 mph /  18.3 km/h 30 % 0.0 in /  0 mm
14:21 15.7 °F /  -9.1 °C -1.8 °F /  -18.8 °C 1015.8 in /  34395 hPa WNW 7.4 mph /  11.9 km/h 7.4 mph /  11.9 km/h 30 % 0.0 in /  0 mm
14:26 15.8 °F /  -9 °C -1.8 °F /  -18.8 °C 1015.8 in /  34395 hPa West 11.1 mph /  17.9 km/h 11.1 mph /  17.9 km/h 30 % 0.0 in /  0 mm
14:31 15.8 °F /  -9 °C -1.8 °F /  -18.8 °C 1015.8 in /  34395 hPa WNW 13.0 mph /  20.9 km/h 13.0 mph /  20.9 km/h 30 % 0.0 in /  0 mm
14:36 15.7 °F /  -9.1 °C -2.8 °F /  -19.3 °C 1014.8 in /  34361.1 hPa West 22.2 mph /  35.7 km/h 22.2 mph /  35.7 km/h 28 % 0.0 in /  0 mm
14:41 15.6 °F /  -9.1 °C -2.9 °F /  -19.4 °C 1014.8 in /  34361.1 hPa WSW 13.0 mph /  20.9 km/h 13.0 mph /  20.9 km/h 28 % 0.0 in /  0 mm
14:46 15.7 °F /  -9.1 °C -2.8 °F /  -19.3 °C 1014.8 in /  34361.1 hPa West 9.5 mph /  15.3 km/h 9.5 mph /  15.3 km/h 28 % 0.0 in /  0 mm
14:51 15.8 °F /  -9 °C -2.2 °F /  -19 °C 1014.8 in /  34361.1 hPa NNW 7.4 mph /  11.9 km/h 7.4 mph /  11.9 km/h 29 % 0.0 in /  0 mm
14:56 15.7 °F /  -9.1 °C -2.8 °F /  -19.3 °C 1014.8 in /  34361.1 hPa West 14.8 mph /  23.8 km/h 14.8 mph /  23.8 km/h 28 % 0.0 in /  0 mm
15:01 15.7 °F /  -9.1 °C -3.3 °F /  -19.6 °C 1014.8 in /  34361.1 hPa South 16.7 mph /  26.9 km/h 16.7 mph /  26.9 km/h 27 % 0.0 in /  0 mm
15:06 15.6 °F /  -9.1 °C -3.3 °F /  -19.6 °C 1014.8 in /  34361.1 hPa WSW 9.3 mph /  15 km/h 9.3 mph /  15 km/h 27 % 0.0 in /  0 mm
15:11 15.6 °F /  -9.1 °C -3.3 °F /  -19.6 °C 1014.8 in /  34361.1 hPa SW 9.7 mph /  15.6 km/h 9.7 mph /  15.6 km/h 27 % 0.0 in /  0 mm
15:16 15.6 °F /  -9.1 °C -3.3 °F /  -19.6 °C 1014.8 in /  34361.1 hPa SSE 7.4 mph /  11.9 km/h 7.4 mph /  11.9 km/h 27 % 0.0 in /  0 mm
15:21 15.6 °F /  -9.1 °C -3.9 °F /  -19.9 °C 1014.8 in /  34361.1 hPa NW 9.3 mph /  15 km/h 9.3 mph /  15 km/h 26 % 0.0 in /  0 mm
15:26 15.5 °F /  -9.2 °C -3.9 °F /  -19.9 °C 1014.8 in /  34361.1 hPa SW 14.8 mph /  23.8 km/h 14.8 mph /  23.8 km/h 26 % 0.0 in /  0 mm
15:31 15.4 °F /  -9.2 °C -4.1 °F /  -20.1 °C 1014.8 in /  34361.1 hPa WNW 5.0 mph /  8 km/h 5.0 mph /  8 km/h 26 % 0.0 in /  0 mm
15:36 15.3 °F /  -9.3 °C -4.1 °F /  -20.1 °C 1014.8 in /  34361.1 hPa East 9.3 mph /  15 km/h 9.3 mph /  15 km/h 26 % 0.0 in /  0 mm
15:41 15.5 °F /  -9.2 °C -3.4 °F /  -19.7 °C 1014.8 in /  34361.1 hPa West 7.4 mph /  11.9 km/h 7.4 mph /  11.9 km/h 27 % 0.0 in /  0 mm
15:46 15.4 °F /  -9.2 °C -4.1 °F /  -20.1 °C 1014.8 in /  34361.1 hPa NW 14.8 mph /  23.8 km/h 14.8 mph /  23.8 km/h 26 % 0.0 in /  0 mm
15:51 15.5 °F /  -9.2 °C -3.4 °F /  -19.7 °C 1014.8 in /  34361.1 hPa WNW 9.7 mph /  15.6 km/h 9.7 mph /  15.6 km/h 27 % 0.0 in /  0 mm
15:56 15.4 °F /  -9.2 °C -4.1 °F /  -20.1 °C 1014.8 in /  34361.1 hPa SSW 13.0 mph /  20.9 km/h 13.0 mph /  20.9 km/h 26 % 0.0 in /  0 mm
16:01 15.3 °F /  -9.3 °C -4.7 °F /  -20.4 °C 1014.8 in /  34361.1 hPa WNW 9.3 mph /  15 km/h 9.3 mph /  15 km/h 25 % 0.0 in /  0 mm
16:06 15.3 °F /  -9.3 °C -4.1 °F /  -20.1 °C 1014.8 in /  34361.1 hPa WNW 14.0 mph /  22.5 km/h 14.0 mph /  22.5 km/h 26 % 0.0 in /  0 mm
16:11 15.0 °F /  -9.4 °C -4.9 °F /  -20.5 °C 1014.8 in /  34361.1 hPa SW 9.3 mph /  15 km/h 9.3 mph /  15 km/h 25 % 0.0 in /  0 mm
16:16 14.9 °F /  -9.5 °C -5.5 °F /  -20.8 °C 1014.8 in /  34361.1 hPa West 11.4 mph /  18.3 km/h 11.4 mph /  18.3 km/h 24 % 0.0 in /  0 mm
16:22 14.7 °F /  -9.6 °C -6.3 °F /  -21.3 °C 1013.8 in /  34327.3 hPa West 11.1 mph /  17.9 km/h 11.1 mph /  17.9 km/h 23 % 0.0 in /  0 mm
16:27 14.6 °F /  -9.7 °C -5.8 °F /  -21 °C 1013.8 in /  34327.3 hPa West 9.3 mph /  15 km/h 9.3 mph /  15 km/h 24 % 0.0 in /  0 mm
16:32 14.5 °F /  -9.7 °C -5.9 °F /  -21.1 °C 1013.8 in /  34327.3 hPa West 18.5 mph /  29.8 km/h 18.5 mph /  29.8 km/h 24 % 0.0 in /  0 mm
16:37 14.4 °F /  -9.8 °C -5.9 °F /  -21.1 °C 1013.8 in /  34327.3 hPa WNW 13.0 mph /  20.9 km/h 13.0 mph /  20.9 km/h 24 % 0.0 in /  0 mm
16:42 14.3 °F /  -9.8 °C -6.1 °F /  -21.2 °C 1013.8 in /  34327.3 hPa SW 9.3 mph /  15 km/h 9.3 mph /  15 km/h 24 % 0.0 in /  0 mm
16:47 14.2 °F /  -9.9 °C -6.7 °F /  -21.5 °C 1013.8 in /  34327.3 hPa South 7.4 mph /  11.9 km/h 7.4 mph /  11.9 km/h 23 % 0.0 in /  0 mm
16:52 14.1 °F /  -9.9 °C -6.8 °F /  -21.6 °C 1013.8 in /  34327.3 hPa WSW 14.8 mph /  23.8 km/h 14.8 mph /  23.8 km/h 23 % 0.0 in /  0 mm
16:57 14.0 °F /  -10 °C -6.8 °F /  -21.6 °C 1013.8 in /  34327.3 hPa West 9.5 mph /  15.3 km/h 9.5 mph /  15.3 km/h 23 % 0.0 in /  0 mm
17:02 13.9 °F /  -10.1 °C -6.9 °F /  -21.6 °C 1013.8 in /  34327.3 hPa WNW 14.8 mph /  23.8 km/h 14.8 mph /  23.8 km/h 23 % 0.0 in /  0 mm
17:07 13.7 °F /  -10.2 °C -7.7 °F /  -22.1 °C 1014.8 in /  34361.1 hPa WNW 18.5 mph /  29.8 km/h 18.5 mph /  29.8 km/h 22 % 0.0 in /  0 mm
17:12 13.6 °F /  -10.2 °C -7.8 °F /  -22.1 °C 1014.8 in /  34361.1 hPa West 16.7 mph /  26.9 km/h 16.7 mph /  26.9 km/h 22 % 0.0 in /  0 mm
17:17 13.3 °F /  -10.4 °C -8.0 °F /  -22.2 °C 1014.8 in /  34361.1 hPa NW 7.4 mph /  11.9 km/h 7.4 mph /  11.9 km/h 22 % 0.0 in /  0 mm
17:22 13.1 °F /  -10.5 °C -8.2 °F /  -22.3 °C 1013.8 in /  34327.3 hPa SW 14.8 mph /  23.8 km/h 14.8 mph /  23.8 km/h 22 % 0.0 in /  0 mm
17:27 13.0 °F /  -10.6 °C -8.3 °F /  -22.4 °C 1013.8 in /  34327.3 hPa WSW 7.4 mph /  11.9 km/h 7.4 mph /  11.9 km/h 22 % 0.0 in /  0 mm
17:32 12.8 °F /  -10.7 °C -8.4 °F /  -22.4 °C 1013.8 in /  34327.3 hPa West 7.4 mph /  11.9 km/h 7.4 mph /  11.9 km/h 22 % 0.0 in /  0 mm
17:37 12.7 °F /  -10.7 °C -8.5 °F /  -22.5 °C 1014.8 in /  34361.1 hPa WSW 13.0 mph /  20.9 km/h 13.0 mph /  20.9 km/h 22 % 0.0 in /  0 mm
17:42 12.6 °F /  -10.8 °C -8.6 °F /  -22.6 °C 1014.8 in /  34361.1 hPa ESE 11.1 mph /  17.9 km/h 11.1 mph /  17.9 km/h 22 % 0.0 in /  0 mm
17:47 12.5 °F /  -10.8 °C -8.7 °F /  -22.6 °C 1014.8 in /  34361.1 hPa West 9.7 mph /  15.6 km/h 9.7 mph /  15.6 km/h 22 % 0.0 in /  0 mm
17:52 12.4 °F /  -10.9 °C -8.8 °F /  -22.7 °C 1014.8 in /  34361.1 hPa WSW 14.8 mph /  23.8 km/h 14.8 mph /  23.8 km/h 22 % 0.0 in /  0 mm
17:57 12.4 °F /  -10.9 °C -8.8 °F /  -22.7 °C 1014.8 in /  34361.1 hPa SSW 7.4 mph /  11.9 km/h 7.4 mph /  11.9 km/h 22 % 0.0 in /  0 mm
18:02 12.2 °F /  -11 °C -8.9 °F /  -22.7 °C 1014.8 in /  34361.1 hPa West 11.1 mph /  17.9 km/h 11.1 mph /  17.9 km/h 22 % 0.0 in /  0 mm
18:07 12.1 °F /  -11.1 °C -9.0 °F /  -22.8 °C 1014.8 in /  34361.1 hPa WSW 14.0 mph /  22.5 km/h 14.0 mph /  22.5 km/h 22 % 0.0 in /  0 mm
18:12 12.0 °F /  -11.1 °C -9.1 °F /  -22.8 °C 1014.8 in /  34361.1 hPa SW 11.1 mph /  17.9 km/h 11.1 mph /  17.9 km/h 22 % 0.0 in /  0 mm
18:15 7.0 °F /  -13.9 °C -9.8 °F /  -23.2 °C 1016.8 in /  34428.8 hPa WSW 1.6 mph /  2.6 km/h 3.2 mph /  5.1 km/h 29 % 0.0 in /  0 mm
18:17 11.9 °F /  -11.2 °C -9.2 °F /  -22.9 °C 1014.8 in /  34361.1 hPa West 7.4 mph /  11.9 km/h 7.4 mph /  11.9 km/h 22 % 0.0 in /  0 mm
18:22 11.8 °F /  -11.2 °C -9.3 °F /  -22.9 °C 1014.8 in /  34361.1 hPa ENE 7.4 mph /  11.9 km/h 7.4 mph /  11.9 km/h 22 % 0.0 in /  0 mm
18:23 11.8 °F /  -11.2 °C -9.3 °F /  -22.9 °C 1014.8 in /  34361.1 hPa WSW 5.6 mph /  9 km/h 5.6 mph /  9 km/h 22 % 0.0 in /  0 mm
18:25 6.8 °F /  -14 °C -10.1 °F /  -23.4 °C 1015.8 in /  34395 hPa West 1.6 mph /  2.6 km/h 3.2 mph /  5.1 km/h 29 % 0.0 in /  0 mm
18:28 11.7 °F /  -11.3 °C -9.3 °F /  -22.9 °C 1014.8 in /  34361.1 hPa West 10.3 mph /  16.6 km/h 10.3 mph /  16.6 km/h 22 % 0.0 in /  0 mm
18:33 11.6 °F /  -11.3 °C -9.4 °F /  -23 °C 1014.8 in /  34361.1 hPa NW 9.3 mph /  15 km/h 9.3 mph /  15 km/h 22 % 0.0 in /  0 mm
18:35 6.7 °F /  -14.1 °C -10.1 °F /  -23.4 °C 1015.8 in /  34395 hPa WNW 1.6 mph /  2.6 km/h 1.6 mph /  2.6 km/h 29 % 0.0 in /  0 mm
18:38 11.6 °F /  -11.3 °C -9.4 °F /  -23 °C 1014.8 in /  34361.1 hPa North 4.7 mph /  7.6 km/h 4.7 mph /  7.6 km/h 22 % 0.0 in /  0 mm
18:43 11.5 °F /  -11.4 °C -9.5 °F /  -23.1 °C 1014.8 in /  34361.1 hPa West 5.6 mph /  9 km/h 5.6 mph /  9 km/h 22 % 0.0 in /  0 mm
18:44 11.4 °F /  -11.4 °C -9.6 °F /  -23.1 °C 1014.8 in /  34361.1 hPa West 5.6 mph /  9 km/h 5.8 mph /  9.3 km/h 22 % 0.0 in /  0 mm
18:45 6.6 °F /  -14.1 °C -9.8 °F /  -23.2 °C 1016.8 in /  34428.8 hPa West 3.2 mph /  5.1 km/h 3.2 mph /  5.1 km/h 30 % 0.0 in /  0 mm
18:49 11.3 °F /  -11.5 °C -9.1 °F /  -22.8 °C 1014.8 in /  34361.1 hPa NNW 5.6 mph /  9 km/h 5.6 mph /  9 km/h 23 % 0.0 in /  0 mm
18:54 11.2 °F /  -11.6 °C -9.2 °F /  -22.9 °C 1014.8 in /  34361.1 hPa West 7.4 mph /  11.9 km/h 7.4 mph /  11.9 km/h 23 % 0.0 in /  0 mm
18:55 6.6 °F /  -14.1 °C -9.8 °F /  -23.2 °C 1016.8 in /  34428.8 hPa Calm   3.2 mph /  5.1 km/h 30 % 0.0 in /  0 mm
18:59 11.1 °F /  -11.6 °C -9.3 °F /  -22.9 °C 1014.8 in /  34361.1 hPa SW 7.4 mph /  11.9 km/h 7.4 mph /  11.9 km/h 23 % 0.0 in /  0 mm
19:04 10.9 °F /  -11.7 °C -9.4 °F /  -23 °C 1014.8 in /  34361.1 hPa WSW 7.4 mph /  11.9 km/h 7.4 mph /  11.9 km/h 23 % 0.0 in /  0 mm
19:05 6.5 °F /  -14.2 °C -9.9 °F /  -23.3 °C 1016.8 in /  34428.8 hPa West 1.6 mph /  2.6 km/h 3.2 mph /  5.1 km/h 30 % 0.0 in /  0 mm
19:09 10.9 °F /  -11.7 °C -9.4 °F /  -23 °C 1014.8 in /  34361.1 hPa West 5.0 mph /  8 km/h 5.0 mph /  8 km/h 23 % 0.0 in /  0 mm
19:14 10.7 °F /  -11.8 °C -9.6 °F /  -23.1 °C 1014.8 in /  34361.1 hPa NE 3.7 mph /  6 km/h 3.7 mph /  6 km/h 23 % 0.0 in /  0 mm
19:15 6.3 °F /  -14.3 °C -10.1 °F /  -23.4 °C 1016.8 in /  34428.8 hPa WSW 3.2 mph /  5.1 km/h 4.8 mph /  7.7 km/h 30 % 0.0 in /  0 mm
19:19 10.8 °F /  -11.8 °C -9.6 °F /  -23.1 °C 1014.8 in /  34361.1 hPa West 5.6 mph /  9 km/h 5.6 mph /  9 km/h 23 % 0.0 in /  0 mm
19:24 10.7 °F /  -11.8 °C -9.6 °F /  -23.1 °C 1014.8 in /  34361.1 hPa NNE 4.2 mph /  6.8 km/h 4.2 mph /  6.8 km/h 23 % 0.0 in /  0 mm
19:25 6.1 °F /  -14.4 °C -10.2 °F /  -23.4 °C 1016.8 in /  34428.8 hPa Calm   3.2 mph /  5.1 km/h 30 % 0.0 in /  0 mm
19:29 10.6 °F /  -11.9 °C -9.7 °F /  -23.2 °C 1014.8 in /  34361.1 hPa SW 7.4 mph /  11.9 km/h 7.4 mph /  11.9 km/h 23 % 0.0 in /  0 mm
19:34 10.7 °F /  -11.8 °C -9.6 °F /  -23.1 °C 1014.8 in /  34361.1 hPa ESE 11.1 mph /  17.9 km/h 11.1 mph /  17.9 km/h 23 % 0.0 in /  0 mm
19:35 6.1 °F /  -14.4 °C -10.2 °F /  -23.4 °C 1016.8 in /  34428.8 hPa West 3.2 mph /  5.1 km/h 3.2 mph /  5.1 km/h 30 % 0.0 in /  0 mm
19:39 10.6 °F /  -11.9 °C -9.7 °F /  -23.2 °C 1015.8 in /  34395 hPa WNW 7.4 mph /  11.9 km/h 7.4 mph /  11.9 km/h 23 % 0.0 in /  0 mm
19:44 10.6 °F /  -11.9 °C -9.7 °F /  -23.2 °C 1015.8 in /  34395 hPa NW 5.6 mph /  9 km/h 5.6 mph /  9 km/h 23 % 0.0 in /  0 mm
19:45 5.9 °F /  -14.5 °C -10.0 °F /  -23.3 °C 1016.8 in /  34428.8 hPa WSW 1.6 mph /  2.6 km/h 4.8 mph /  7.7 km/h 31 % 0.0 in /  0 mm
19:49 10.5 °F /  -11.9 °C -9.3 °F /  -22.9 °C 1015.8 in /  34395 hPa NW 7.4 mph /  11.9 km/h 7.4 mph /  11.9 km/h 24 % 0.0 in /  0 mm
19:54 10.3 °F /  -12.1 °C -9.4 °F /  -23 °C 1015.8 in /  34395 hPa WSW 5.6 mph /  9 km/h 5.6 mph /  9 km/h 24 % 0.0 in /  0 mm
19:55 5.4 °F /  -14.8 °C -10.4 °F /  -23.6 °C 1016.8 in /  34428.8 hPa WSW 1.6 mph /  2.6 km/h 4.8 mph /  7.7 km/h 31 % 0.0 in /  0 mm
19:59 10.2 °F /  -12.1 °C -9.5 °F /  -23.1 °C 1015.8 in /  34395 hPa WSW 5.6 mph /  9 km/h 5.6 mph /  9 km/h 24 % 0.0 in /  0 mm
20:04 9.9 °F /  -12.3 °C -9.8 °F /  -23.2 °C 1015.8 in /  34395 hPa WNW 3.9 mph /  6.3 km/h 3.9 mph /  6.3 km/h 24 % 0.0 in /  0 mm
20:05 9.9 °F /  -12.3 °C -9.8 °F /  -23.2 °C 1015.8 in /  34395 hPa WNW 3.7 mph /  6 km/h 3.7 mph /  6 km/h 24 % 0.0 in /  0 mm
20:10 9.8 °F /  -12.3 °C -9.8 °F /  -23.2 °C 1015.8 in /  34395 hPa West 4.2 mph /  6.8 km/h 4.2 mph /  6.8 km/h 24 % 0.0 in /  0 mm
20:15 9.7 °F /  -12.4 °C -9.9 °F /  -23.3 °C 1015.8 in /  34395 hPa West 5.6 mph /  9 km/h 5.6 mph /  9 km/h 24 % 0.0 in /  0 mm
20:20 9.6 °F /  -12.4 °C -10.0 °F /  -23.3 °C 1015.8 in /  34395 hPa WSW 5.6 mph /  9 km/h 5.6 mph /  9 km/h 24 % 0.0 in /  0 mm
20:25 9.4 °F /  -12.6 °C -9.7 °F /  -23.2 °C 1015.8 in /  34395 hPa SW 7.4 mph /  11.9 km/h 7.4 mph /  11.9 km/h 25 % 0.0 in /  0 mm
20:30 9.2 °F /  -12.7 °C -9.8 °F /  -23.2 °C 1015.8 in /  34395 hPa SSW 1.9 mph /  3.1 km/h 2.3 mph /  3.7 km/h 25 % 0.0 in /  0 mm
20:35 9.1 °F /  -12.7 °C -9.9 °F /  -23.3 °C 1015.8 in /  34395 hPa SSW 3.7 mph /  6 km/h 3.7 mph /  6 km/h 25 % 0.0 in /  0 mm
20:40 9.0 °F /  -12.8 °C -10.0 °F /  -23.3 °C 1015.8 in /  34395 hPa SE 2.6 mph /  4.2 km/h   25 % 0.0 in /  0 mm
20:45 8.9 °F /  -12.8 °C -10.1 °F /  -23.4 °C 1015.8 in /  34395 hPa NE 5.6 mph /  9 km/h 5.6 mph /  9 km/h 25 % 0.0 in /  0 mm
20:50 9.0 °F /  -12.8 °C -10.0 °F /  -23.3 °C 1015.8 in /  34395 hPa ENE 5.0 mph /  8 km/h 5.0 mph /  8 km/h 25 % 0.0 in /  0 mm
20:55 9.0 °F /  -12.8 °C -10.0 °F /  -23.3 °C 1015.8 in /  34395 hPa SW 3.7 mph /  6 km/h 3.7 mph /  6 km/h 25 % 0.0 in /  0 mm
21:00 8.8 °F /  -12.9 °C -10.2 °F /  -23.4 °C 1015.8 in /  34395 hPa East 3.7 mph /  6 km/h 3.7 mph /  6 km/h 25 % 0.0 in /  0 mm
21:05 8.8 °F /  -12.9 °C -10.2 °F /  -23.4 °C 1015.8 in /  34395 hPa ENE 3.7 mph /  6 km/h 3.7 mph /  6 km/h 25 % 0.0 in /  0 mm
21:10 8.7 °F /  -12.9 °C -10.3 °F /  -23.5 °C 1015.8 in /  34395 hPa NW 9.3 mph /  15 km/h 9.3 mph /  15 km/h 25 % 0.0 in /  0 mm
21:15 8.7 °F /  -12.9 °C -10.3 °F /  -23.5 °C 1015.8 in /  34395 hPa ENE 3.7 mph /  6 km/h 3.7 mph /  6 km/h 25 % 0.0 in /  0 mm
21:20 8.6 °F /  -13 °C -10.3 °F /  -23.5 °C 1015.8 in /  34395 hPa ENE 2.3 mph /  3.7 km/h 2.3 mph /  3.7 km/h 25 % 0.0 in /  0 mm
21:25 8.6 °F /  -13 °C -10.3 °F /  -23.5 °C 1015.8 in /  34395 hPa ENE 3.7 mph /  6 km/h   25 % 0.0 in /  0 mm
21:26 8.6 °F /  -13 °C -10.3 °F /  -23.5 °C 1015.8 in /  34395 hPa ESE 4.2 mph /  6.8 km/h   25 % 0.0 in /  0 mm
21:31 8.5 °F /  -13.1 °C -10.4 °F /  -23.6 °C 1015.8 in /  34395 hPa ENE 3.9 mph /  6.3 km/h 3.9 mph /  6.3 km/h 25 % 0.0 in /  0 mm
21:35 5.0 °F /  -15 °C -10.3 °F /  -23.5 °C 1017.8 in /  34462.7 hPa Calm   1.6 mph /  2.6 km/h 32 % 0.0 in /  0 mm
21:36 8.3 °F /  -13.2 °C -10.1 °F /  -23.4 °C 1016.8 in /  34428.8 hPa Calm     26 % 0.0 in /  0 mm
21:41 8.2 °F /  -13.2 °C -10.2 °F /  -23.4 °C 1016.8 in /  34428.8 hPa WSW 1.9 mph /  3.1 km/h 1.9 mph /  3.1 km/h 26 % 0.0 in /  0 mm
21:45 4.9 °F /  -15.1 °C -10.4 °F /  -23.6 °C 1016.8 in /  34428.8 hPa NW 3.2 mph /  5.1 km/h 3.2 mph /  5.1 km/h 32 % 0.0 in /  0 mm
21:46 8.2 °F /  -13.2 °C -10.2 °F /  -23.4 °C 1016.8 in /  34428.8 hPa SW 3.7 mph /  6 km/h 3.7 mph /  6 km/h 26 % 0.0 in /  0 mm
21:51 8.1 °F /  -13.3 °C -10.3 °F /  -23.5 °C 1015.8 in /  34395 hPa SW 3.7 mph /  6 km/h 3.7 mph /  6 km/h 26 % 0.0 in /  0 mm
21:55 4.8 °F /  -15.1 °C -10.6 °F /  -23.7 °C 1017.8 in /  34462.7 hPa North 1.6 mph /  2.6 km/h 3.2 mph /  5.1 km/h 32 % 0.0 in /  0 mm
21:56 7.9 °F /  -13.4 °C -10.4 °F /  -23.6 °C 1015.8 in /  34395 hPa SSW 3.7 mph /  6 km/h 3.7 mph /  6 km/h 26 % 0.0 in /  0 mm
22:01 7.8 °F /  -13.4 °C -10.6 °F /  -23.7 °C 1015.8 in /  34395 hPa SW 3.7 mph /  6 km/h 3.7 mph /  6 km/h 26 % 0.0 in /  0 mm
22:05 4.8 °F /  -15.1 °C -10.6 °F /  -23.7 °C 1017.8 in /  34462.7 hPa North 1.6 mph /  2.6 km/h 3.2 mph /  5.1 km/h 32 % 0.0 in /  0 mm
22:06 7.8 °F /  -13.4 °C -10.1 °F /  -23.4 °C 1016.8 in /  34428.8 hPa WNW 3.7 mph /  6 km/h 3.7 mph /  6 km/h 27 % 0.0 in /  0 mm
22:11 7.8 °F /  -13.4 °C -10.1 °F /  -23.4 °C 1016.8 in /  34428.8 hPa South 3.7 mph /  6 km/h 3.7 mph /  6 km/h 27 % 0.0 in /  0 mm
22:15 4.5 °F /  -15.3 °C -10.8 °F /  -23.8 °C 1016.8 in /  34428.8 hPa NNE 3.2 mph /  5.1 km/h 4.8 mph /  7.7 km/h 32 % 0.0 in /  0 mm
22:16 7.7 °F /  -13.5 °C -10.2 °F /  -23.4 °C 1016.8 in /  34428.8 hPa West 1.9 mph /  3.1 km/h   27 % 0.0 in /  0 mm
22:21 7.6 °F /  -13.6 °C -10.2 °F /  -23.4 °C 1016.8 in /  34428.8 hPa WSW 2.3 mph /  3.7 km/h 2.3 mph /  3.7 km/h 27 % 0.0 in /  0 mm
22:25 4.2 °F /  -15.4 °C -10.7 °F /  -23.7 °C 1017.8 in /  34462.7 hPa Calm   1.6 mph /  2.6 km/h 33 % 0.0 in /  0 mm
22:26 7.4 °F /  -13.7 °C -10.4 °F /  -23.6 °C 1016.8 in /  34428.8 hPa West 4.2 mph /  6.8 km/h 4.2 mph /  6.8 km/h 27 % 0.0 in /  0 mm
22:31 7.3 °F /  -13.7 °C -10.5 °F /  -23.6 °C 1016.8 in /  34428.8 hPa WSW 4.2 mph /  6.8 km/h 4.2 mph /  6.8 km/h 27 % 0.0 in /  0 mm
22:35 4.1 °F /  -15.5 °C -10.8 °F /  -23.8 °C 1017.8 in /  34462.7 hPa Calm     33 % 0.0 in /  0 mm
22:36 7.4 °F /  -13.7 °C -10.4 °F /  -23.6 °C 1016.8 in /  34428.8 hPa West 3.9 mph /  6.3 km/h 3.9 mph /  6.3 km/h 27 % 0.0 in /  0 mm
22:41 7.5 °F /  -13.6 °C -10.3 °F /  -23.5 °C 1016.8 in /  34428.8 hPa SSW 3.7 mph /  6 km/h 3.7 mph /  6 km/h 27 % 0.0 in /  0 mm
22:45 4.1 °F /  -15.5 °C -10.8 °F /  -23.8 °C 1017.8 in /  34462.7 hPa NW 1.6 mph /  2.6 km/h 3.2 mph /  5.1 km/h 33 % 0.0 in /  0 mm
22:46 7.5 °F /  -13.6 °C -10.3 °F /  -23.5 °C 1016.8 in /  34428.8 hPa West 3.9 mph /  6.3 km/h 3.9 mph /  6.3 km/h 27 % 0.0 in /  0 mm
22:51 7.6 °F /  -13.6 °C -9.8 °F /  -23.2 °C 1015.8 in /  34395 hPa WSW 5.6 mph /  9 km/h 5.6 mph /  9 km/h 28 % 0.0 in /  0 mm
22:55 4.0 °F /  -15.6 °C -10.5 °F /  -23.6 °C 1018.8 in /  34496.6 hPa Calm   3.2 mph /  5.1 km/h 34 % 0.0 in /  0 mm
22:56 7.3 °F /  -13.7 °C -10.1 °F /  -23.4 °C 1015.8 in /  34395 hPa SSE 5.0 mph /  8 km/h 5.0 mph /  8 km/h 28 % 0.0 in /  0 mm
23:01 7.5 °F /  -13.6 °C -9.9 °F /  -23.3 °C 1015.8 in /  34395 hPa WNW 5.6 mph /  9 km/h 5.6 mph /  9 km/h 28 % 0.0 in /  0 mm
23:05 3.7 °F /  -15.7 °C -10.7 °F /  -23.7 °C 1018.8 in /  34496.6 hPa West 1.6 mph /  2.6 km/h 1.6 mph /  2.6 km/h 34 % 0.0 in /  0 mm
23:06 7.5 °F /  -13.6 °C -9.9 °F /  -23.3 °C 1015.8 in /  34395 hPa Calm     28 % 0.0 in /  0 mm
23:11 7.2 °F /  -13.8 °C -10.1 °F /  -23.4 °C 1015.8 in /  34395 hPa WSW 5.6 mph /  9 km/h 5.6 mph /  9 km/h 28 % 0.0 in /  0 mm
23:15 3.6 °F /  -15.8 °C -10.8 °F /  -23.8 °C 1017.8 in /  34462.7 hPa West 1.6 mph /  2.6 km/h 4.8 mph /  7.7 km/h 34 % 0.0 in /  0 mm
23:16 6.8 °F /  -14 °C -10.5 °F /  -23.6 °C 1015.8 in /  34395 hPa South 1.9 mph /  3.1 km/h 1.9 mph /  3.1 km/h 28 % 0.0 in /  0 mm
23:18 6.9 °F /  -13.9 °C -10.4 °F /  -23.6 °C 1015.8 in /  34395 hPa South 1.9 mph /  3.1 km/h 1.9 mph /  3.1 km/h 28 % 0.0 in /  0 mm
23:23 7.0 °F /  -13.9 °C -10.3 °F /  -23.5 °C 1015.8 in /  34395 hPa WSW 3.7 mph /  6 km/h 4.2 mph /  6.8 km/h 28 % 0.0 in /  0 mm
23:25 3.7 °F /  -15.7 °C -10.7 °F /  -23.7 °C 1017.8 in /  34462.7 hPa WNW 1.6 mph /  2.6 km/h 3.2 mph /  5.1 km/h 34 % 0.0 in /  0 mm
23:28 6.9 °F /  -13.9 °C -10.4 °F /  -23.6 °C 1015.8 in /  34395 hPa West 7.4 mph /  11.9 km/h 7.4 mph /  11.9 km/h 28 % 0.0 in /  0 mm
23:33 7.0 °F /  -13.9 °C -9.8 °F /  -23.2 °C 1015.8 in /  34395 hPa WSW 5.3 mph /  8.5 km/h 5.3 mph /  8.5 km/h 29 % 0.0 in /  0 mm
23:35 3.8 °F /  -15.7 °C -10.7 °F /  -23.7 °C 1017.8 in /  34462.7 hPa NNW 1.6 mph /  2.6 km/h 1.6 mph /  2.6 km/h 34 % 0.0 in /  0 mm
23:38 6.9 °F /  -13.9 °C -9.9 °F /  -23.3 °C 1015.8 in /  34395 hPa West 3.7 mph /  6 km/h 3.7 mph /  6 km/h 29 % 0.0 in /  0 mm
23:43 6.9 °F /  -13.9 °C -9.9 °F /  -23.3 °C 1015.8 in /  34395 hPa SE 1.9 mph /  3.1 km/h 1.9 mph /  3.1 km/h 29 % 0.0 in /  0 mm
23:45 3.7 °F /  -15.7 °C -10.7 °F /  -23.7 °C 1016.8 in /  34428.8 hPa NW 1.6 mph /  2.6 km/h 3.2 mph /  5.1 km/h 34 % 0.0 in /  0 mm
23:48 7.0 °F /  -13.9 °C -9.8 °F /  -23.2 °C 1015.8 in /  34395 hPa WNW 4.2 mph /  6.8 km/h 4.2 mph /  6.8 km/h 29 % 0.0 in /  0 mm
23:53 7.0 °F /  -13.9 °C -9.8 °F /  -23.2 °C 1015.8 in /  34395 hPa SW 1.9 mph /  3.1 km/h 1.9 mph /  3.1 km/h 29 % 0.0 in /  0 mm
23:55 3.6 °F /  -15.8 °C -10.4 °F /  -23.6 °C 1017.8 in /  34462.7 hPa WNW 1.6 mph /  2.6 km/h 1.6 mph /  2.6 km/h 35 % 0.0 in /  0 mm
23:58 7.0 °F /  -13.9 °C -9.8 °F /  -23.2 °C 1015.8 in /  34395 hPa WNW 3.7 mph /  6 km/h 3.7 mph /  6 km/h 29 % 0.0 in /  0 mm
Meteo Sesrovires
Elogis d' Weather Underground - 2 mb

Guio original per  Jim McMurry - jmcmurry@mwt.net Adaptat per a la plantilla per  Wim van der Kuil - Leuven-Template.eu

Trobareu la nostra informacio del temps tambe a:

Weather Underground

AWEKAS